Skip Navigation LinksHome page > Weather > Current weather Skip Navigation Links

Current Weather

San Francisco International, San Francisco

For information only: do not use for flight planning or navigation.
Latest weather
Observation time Tuesday, October 21, 2014 7:56 PM PDT
Local time Tuesday, October 21, 2014 8:08 PM PDT
Flight conditions Visual Meteorological Conditions
Winds
Wind direction West (280°)
Wind speed 18 mph
Wind gusting to 24 mph
Visibility 10 mi.
Sky condition
Ceiling unlimited
Cloud layer few clouds 1,000 ft.
Temperature 64°F
Dewpoint 55°F
Altimeter 30.03 in.Hg
Pressure change last 3 hours0.00 in.Hg
Pressure falling, then rising
Derived measurements
Relative humidity 73%
Density altitude 425 ft.
Sea-level pressure 30.03 in.Hg
Remarks
System requires maintenance.
Automated weather observing station with precipitation discriminator.
METAR KSFO 220256Z 28016G21KT 10SM FEW010 18/13 A3003 RMK AO2 SLP169 T01780128 55001 $

Settings

Location code

InnerDrive.Weather 4.0.5399.0 Release CLR 4.0.30319.34014
Copyright ©2014 Inner Drive Technology. All rights reserved. Portions Copyright ©1986-2014 David Braverman.

Find weather

Site navigation


Skip Navigation Links

Place info

Page info

PayPal - The safer, easier way to pay online!

Return home.

Copyright ©2014 Inner Drive Technology. Purveyors of fine, hand-crafted computer software. Page printed 2014-10-22T03:08:37 UTC.